createdAt,value
2018-04-19T00:07:01.471Z,13.8
2018-04-19T00:17:16.904Z,13.6
2018-04-19T00:27:32.538Z,13.3
2018-04-19T00:37:47.159Z,13.5
2018-04-19T00:48:01.307Z,13.8
2018-04-19T00:58:15.491Z,13.5
2018-04-19T01:08:31.191Z,13.1
2018-04-19T01:18:45.266Z,13.6
2018-04-19T01:28:59.077Z,13.8
2018-04-19T01:39:13.839Z,13.8
2018-04-19T01:49:28.225Z,13.4
2018-04-19T01:59:42.087Z,13.8
2018-04-19T02:09:56.698Z,13.8
2018-04-19T02:20:10.663Z,13.7
2018-04-19T02:30:25.842Z,13.5
2018-04-19T02:40:40.269Z,13.3
2018-04-19T02:50:54.830Z,13.5
2018-04-19T03:01:09.145Z,13.4
2018-04-19T03:11:24.626Z,12.9
2018-04-19T03:21:39.358Z,13
2018-04-19T03:31:54.647Z,12
2018-04-19T03:42:09.448Z,11.3
2018-04-19T03:52:23.797Z,11.5
2018-04-19T04:02:37.624Z,11
2018-04-19T04:12:51.889Z,10.9
2018-04-19T04:23:06.751Z,10.8
2018-04-19T04:33:20.540Z,10.6
2018-04-19T04:43:34.519Z,10.5
2018-04-19T04:53:48.620Z,10.5
2018-04-19T05:04:03.128Z,11.3
2018-04-19T05:14:17.576Z,11.3
2018-04-19T05:24:32.971Z,12.3
2018-04-19T05:34:46.919Z,11.9
2018-04-19T05:45:02.527Z,11.8
2018-04-19T05:55:18.293Z,12.7
2018-04-19T06:05:33.532Z,13.8
2018-04-19T06:15:48.784Z,14.8
2018-04-19T06:26:03.641Z,15.8
2018-04-19T06:36:19.041Z,17
2018-04-19T06:46:34.115Z,17.5
2018-04-19T06:56:49.312Z,18.1
2018-04-19T07:07:03.478Z,19.1
2018-04-19T07:17:18.365Z,20.7
2018-04-19T07:27:32.793Z,21.8
2018-04-19T07:37:47.088Z,22.8
2018-04-19T07:48:02.611Z,22.8
2018-04-19T07:58:16.577Z,23.6
2018-04-19T08:08:31.237Z,23.8
2018-04-19T08:18:46.811Z,25.1
2018-04-19T08:29:02.537Z,25.2
2018-04-19T08:39:18.437Z,26.1
2018-04-19T08:49:33.732Z,26.4
2018-04-19T08:59:49.067Z,26.7
2018-04-19T09:10:03.872Z,26.4
2018-04-19T09:20:19.370Z,26.4
2018-04-19T09:30:33.305Z,26.6
2018-04-19T09:51:03.757Z,27.5
2018-04-19T10:01:18.512Z,28
2018-04-19T10:11:33.195Z,28.2
2018-04-19T10:21:47.662Z,28.2
2018-04-19T10:32:02.419Z,28.6
2018-04-19T10:42:17.141Z,29.3
2018-04-19T10:52:33.049Z,28.9
2018-04-19T11:02:48.238Z,29
2018-04-19T11:13:02.493Z,29.4
2018-04-19T11:23:17.887Z,29.1
2018-04-19T11:33:32.371Z,29.1
2018-04-19T11:43:46.593Z,29.4
2018-04-19T11:54:02.393Z,29.7
2018-04-19T12:04:18.078Z,29.4
2018-04-19T12:14:32.529Z,29.8
2018-04-19T12:24:47.486Z,29.5
2018-04-19T12:35:01.672Z,29
2018-04-19T12:45:17.105Z,28.7
2018-04-19T12:55:32.748Z,29.9
2018-04-19T13:05:48.493Z,30.3
2018-04-19T13:16:02.549Z,30.2
2018-04-19T13:26:17.937Z,29.8
2018-04-19T13:36:32.356Z,30.2
2018-04-19T13:46:48.163Z,29.8
2018-04-19T13:57:03.097Z,30.5
2018-04-19T14:07:18.098Z,30.1
2018-04-19T14:17:33.534Z,30.3
2018-04-19T14:27:48.761Z,30.3
2018-04-19T14:38:03.211Z,30.5
2018-04-19T14:48:17.683Z,30.3
2018-04-19T14:58:33.498Z,30.3
2018-04-19T15:08:48.395Z,30.2
2018-04-19T15:19:03.610Z,30.4
2018-04-19T15:29:19.384Z,29.7
2018-04-19T15:39:33.309Z,29.8
2018-04-19T15:49:48.834Z,29.1
2018-04-19T16:00:04.175Z,29.3
2018-04-19T16:10:19.495Z,29.1
2018-04-19T16:20:34.103Z,28.6
2018-04-19T16:30:48.268Z,28.2
2018-04-19T16:41:03.957Z,28.2
2018-04-19T16:51:19.225Z,27.6
2018-04-19T17:01:34.600Z,27
2018-04-19T17:11:48.964Z,27
2018-04-19T17:22:02.873Z,27
2018-04-19T17:32:16.842Z,26.7
2018-04-19T17:42:31.716Z,26.1
2018-04-19T17:52:46.601Z,24.8
2018-04-19T18:03:01.928Z,24.1
2018-04-19T18:13:17.592Z,23.9
2018-04-19T18:23:33.248Z,23.2
2018-04-19T18:33:48.066Z,22.7
2018-04-19T18:44:03.792Z,22.5
2018-04-19T18:54:18.554Z,21.5
2018-04-19T19:04:32.578Z,21.1
2018-04-19T19:14:47.380Z,20.4
2018-04-19T19:25:01.702Z,20
2018-04-19T19:35:16.932Z,19.5
2018-04-19T19:45:31.491Z,19.4
2018-04-19T19:55:45.881Z,19.1
2018-04-19T20:06:01.666Z,19
2018-04-19T20:16:16.609Z,19.2
2018-04-19T20:26:30.533Z,18.5
2018-04-19T20:36:45.365Z,17.9
2018-04-19T20:47:00.689Z,18
2018-04-19T20:57:15.491Z,18.9
2018-04-19T21:07:31.006Z,18.4
2018-04-19T21:28:00.738Z,18.2
2018-04-19T21:38:16.271Z,18.3
2018-04-19T21:48:30.630Z,17.9
2018-04-19T21:58:44.908Z,17.6
2018-04-19T22:09:00.808Z,17
2018-04-19T22:19:13.857Z,17
2018-04-19T22:29:29.246Z,16.5
2018-04-19T22:39:44.017Z,16.9
2018-04-19T22:49:59.272Z,16.9
2018-04-19T23:00:14.308Z,17
2018-04-19T23:10:28.117Z,16.9
2018-04-19T23:20:42.310Z,16.7
2018-04-19T23:30:57.463Z,16.8
2018-04-19T23:41:11.415Z,16.6
2018-04-19T23:51:25.445Z,15.9
